createdAt,value
2018-05-06T00:00:05.585Z,101665
2018-05-06T00:02:33.915Z,101661
2018-05-06T00:05:03.482Z,101663
2018-05-06T00:07:31.825Z,101664
2018-05-06T00:10:00.153Z,101656
2018-05-06T00:12:28.472Z,101656
2018-05-06T00:14:57.052Z,101659
2018-05-06T00:17:25.369Z,101654
2018-05-06T00:19:53.721Z,101651
2018-05-06T00:22:22.006Z,101651
2018-05-06T00:24:50.333Z,101656
2018-05-06T00:27:19.417Z,101654
2018-05-06T00:29:47.801Z,101650
2018-05-06T00:32:17.754Z,101648
2018-05-06T00:34:46.037Z,101645
2018-05-06T00:37:14.358Z,101646
2018-05-06T00:39:42.664Z,101644
2018-05-06T00:42:12.054Z,101646
2018-05-06T00:44:41.281Z,101653
2018-05-06T00:47:09.691Z,101652
2018-05-06T00:49:38.247Z,101654
2018-05-06T00:52:06.697Z,101657
2018-05-06T00:54:44.717Z,101658
2018-05-06T00:57:13.766Z,101649
2018-05-06T00:59:42.312Z,101651
2018-05-06T01:02:10.580Z,101646
2018-05-06T01:04:38.891Z,101647
2018-05-06T01:07:07.538Z,101647
2018-05-06T01:09:36.028Z,101653
2018-05-06T01:12:04.480Z,101651
2018-05-06T01:14:32.781Z,101651
2018-05-06T01:17:01.752Z,101652
2018-05-06T01:19:30.898Z,101651
2018-05-06T01:21:59.212Z,101650
2018-05-06T01:24:27.582Z,101650
2018-05-06T01:26:55.918Z,101653
2018-05-06T01:29:24.203Z,101653
2018-05-06T01:31:52.652Z,101654
2018-05-06T01:34:21.694Z,101652
2018-05-06T01:36:50.137Z,101648
2018-05-06T01:39:19.454Z,101645
2018-05-06T01:41:47.758Z,101646
2018-05-06T01:44:16.222Z,101652
2018-05-06T01:46:44.582Z,101643
2018-05-06T01:49:13.034Z,101646
2018-05-06T01:51:42.088Z,101650
2018-05-06T01:54:10.431Z,101652
2018-05-06T01:56:38.732Z,101649
2018-05-06T01:59:07.067Z,101650
2018-05-06T02:01:36.097Z,101654
2018-05-06T02:04:04.372Z,101647
2018-05-06T02:06:32.683Z,101646
2018-05-06T02:09:01.013Z,101648
2018-05-06T02:11:29.474Z,101660
2018-05-06T02:13:58.514Z,101659
2018-05-06T02:16:26.812Z,101654
2018-05-06T02:18:57.097Z,101654
2018-05-06T02:21:25.411Z,101653
2018-05-06T02:23:53.827Z,101651
2018-05-06T02:26:22.178Z,101642
2018-05-06T02:28:50.528Z,101651
2018-05-06T02:31:18.853Z,101649
2018-05-06T02:33:47.962Z,101643
2018-05-06T02:36:16.353Z,101643
2018-05-06T02:38:44.682Z,101641
2018-05-06T02:41:13.115Z,101641
2018-05-06T02:43:41.387Z,101636
2018-05-06T02:46:09.735Z,101635
2018-05-06T02:48:39.632Z,101641
2018-05-06T02:51:08.256Z,101638
2018-05-06T02:53:36.647Z,101636
2018-05-06T02:56:05.039Z,101639
2018-05-06T02:58:33.364Z,101640
2018-05-06T03:01:02.499Z,101640
2018-05-06T03:03:30.886Z,101644
2018-05-06T03:05:59.196Z,101637
2018-05-06T03:08:27.598Z,101638
2018-05-06T03:10:56.644Z,101636
2018-05-06T03:13:25.003Z,101632
2018-05-06T03:15:53.282Z,101635
2018-05-06T03:18:23.225Z,101635
2018-05-06T03:20:51.522Z,101635
2018-05-06T03:23:19.834Z,101635
2018-05-06T03:25:48.262Z,101637
2018-05-06T03:28:16.594Z,101638
2018-05-06T03:30:44.909Z,101638
2018-05-06T03:33:13.217Z,101641
2018-05-06T03:35:41.713Z,101645
2018-05-06T03:38:10.771Z,101642
2018-05-06T03:40:40.607Z,101640
2018-05-06T03:43:09.020Z,101643
2018-05-06T03:45:37.498Z,101643
2018-05-06T03:48:06.015Z,101643
2018-05-06T03:50:35.514Z,101645
2018-05-06T03:53:03.818Z,101644
2018-05-06T03:55:32.139Z,101646
2018-05-06T04:01:12.770Z,101653
2018-05-06T04:03:41.283Z,101655
2018-05-06T04:06:10.593Z,101654
2018-05-06T04:08:38.977Z,101652
2018-05-06T04:11:07.319Z,101651
2018-05-06T04:13:35.607Z,101650
2018-05-06T04:16:05.433Z,101651
2018-05-06T04:18:34.668Z,101652
2018-05-06T04:21:02.969Z,101655
2018-05-06T04:23:31.387Z,101654
2018-05-06T04:26:00.482Z,101657
2018-05-06T04:28:29.753Z,101654
2018-05-06T04:30:58.073Z,101653
2018-05-06T04:33:26.329Z,101647
2018-05-06T04:35:55.478Z,101645
2018-05-06T04:38:25.654Z,101642
2018-05-06T04:40:55.822Z,101643
2018-05-06T04:43:24.264Z,101642
2018-05-06T04:45:52.654Z,101641
2018-05-06T04:48:21.107Z,101646
2018-05-06T04:53:32.814Z,101645
2018-05-06T04:56:02.984Z,101650
2018-05-06T04:58:31.264Z,101647
2018-05-06T05:00:59.594Z,101652
2018-05-06T05:03:28.684Z,101649
2018-05-06T05:05:57.987Z,101655
2018-05-06T05:08:27.148Z,101654
2018-05-06T05:10:56.966Z,101657
2018-05-06T05:13:25.330Z,101658
2018-05-06T05:15:53.682Z,101662
2018-05-06T05:18:21.962Z,101663
2018-05-06T05:20:50.276Z,101661
2018-05-06T05:23:18.614Z,101661
2018-05-06T05:25:46.960Z,101651
2018-05-06T05:28:16.073Z,101654
2018-05-06T05:30:44.424Z,101658
2018-05-06T05:33:13.484Z,101656
2018-05-06T05:35:41.945Z,101657
2018-05-06T05:38:10.413Z,101658
2018-05-06T05:40:38.696Z,101658
2018-05-06T05:43:07.229Z,101659
2018-05-06T05:45:35.544Z,101653
2018-05-06T05:48:03.911Z,101659
2018-05-06T05:50:32.218Z,101661
2018-05-06T05:53:00.608Z,101663
2018-05-06T05:55:28.913Z,101668
2018-05-06T05:57:57.274Z,101671
2018-05-06T06:00:25.659Z,101670
2018-05-06T06:02:54.079Z,101670
2018-05-06T06:05:22.409Z,101672
2018-05-06T06:07:50.698Z,101671
2018-05-06T06:10:19.205Z,101674
2018-05-06T06:12:48.264Z,101678
2018-05-06T06:15:16.563Z,101676
2018-05-06T06:17:44.882Z,101680
2018-05-06T06:20:13.223Z,101683
2018-05-06T06:22:42.965Z,101679
2018-05-06T06:25:11.285Z,101675
2018-05-06T06:27:39.764Z,101677
2018-05-06T06:30:08.073Z,101680
2018-05-06T06:32:37.155Z,101685
2018-05-06T06:35:05.530Z,101681
2018-05-06T06:37:33.860Z,101684
2018-05-06T06:40:02.183Z,101685
2018-05-06T06:42:30.560Z,101685
2018-05-06T06:44:58.944Z,101689
2018-05-06T06:47:27.278Z,101688
2018-05-06T06:49:55.792Z,101689
2018-05-06T06:52:24.599Z,101694
2018-05-06T06:54:53.768Z,101691
2018-05-06T06:57:22.184Z,101696
2018-05-06T06:59:51.384Z,101696
2018-05-06T07:02:19.690Z,101689
2018-05-06T07:04:48.093Z,101690
2018-05-06T07:07:16.393Z,101696
2018-05-06T07:09:44.804Z,101698
2018-05-06T07:12:13.153Z,101701
2018-05-06T07:14:41.507Z,101696
2018-05-06T07:17:09.841Z,101693
2018-05-06T07:19:38.158Z,101688
2018-05-06T07:22:06.840Z,101694
2018-05-06T07:24:35.251Z,101687
2018-05-06T07:27:03.545Z,101687
2018-05-06T07:29:31.899Z,101689
2018-05-06T07:32:00.214Z,101686
2018-05-06T07:34:28.689Z,101683
2018-05-06T07:36:57.223Z,101680
2018-05-06T07:39:25.534Z,101682
2018-05-06T07:41:53.815Z,101686
2018-05-06T07:44:22.963Z,101680
2018-05-06T07:46:52.774Z,101684
2018-05-06T07:49:21.400Z,101685
2018-05-06T07:51:50.571Z,101683
2018-05-06T07:54:18.956Z,101684
2018-05-06T07:56:47.285Z,101681
2018-05-06T07:59:15.566Z,101687
2018-05-06T08:01:43.861Z,101689
2018-05-06T08:04:12.615Z,101684
2018-05-06T08:06:41.040Z,101684
2018-05-06T08:09:09.721Z,101688
2018-05-06T08:11:38.564Z,101694
2018-05-06T08:14:06.940Z,101692
2018-05-06T08:16:35.330Z,101699
2018-05-06T08:19:06.235Z,101702
2018-05-06T08:21:35.786Z,101703
2018-05-06T08:24:04.113Z,101703
2018-05-06T08:26:33.494Z,101699
2018-05-06T08:29:02.085Z,101701
2018-05-06T08:31:30.404Z,101705
2018-05-06T08:33:59.566Z,101693
2018-05-06T08:36:27.935Z,101706
2018-05-06T08:38:56.309Z,101698
2018-05-06T08:41:24.643Z,101696
2018-05-06T08:43:53.120Z,101687
2018-05-06T08:46:21.484Z,101685
2018-05-06T08:48:50.037Z,101674
2018-05-06T08:51:18.446Z,101671
2018-05-06T08:53:46.884Z,101667
2018-05-06T08:56:15.329Z,101666
2018-05-06T08:58:44.095Z,101661
2018-05-06T09:01:12.410Z,101672
2018-05-06T09:03:40.900Z,101671
2018-05-06T09:06:09.407Z,101667
2018-05-06T09:08:37.699Z,101673
2018-05-06T09:11:07.155Z,101673
2018-05-06T09:13:35.402Z,101675
2018-05-06T09:16:03.761Z,101668
2018-05-06T09:18:32.981Z,101672
2018-05-06T09:21:01.385Z,101670
2018-05-06T09:23:30.050Z,101668
2018-05-06T09:25:58.520Z,101668
2018-05-06T09:28:26.830Z,101662
2018-05-06T09:30:55.216Z,101669
2018-05-06T09:33:23.627Z,101662
2018-05-06T09:35:51.967Z,101667
2018-05-06T09:38:20.360Z,101654
2018-05-06T09:40:48.661Z,101651
2018-05-06T09:43:17.387Z,101643
2018-05-06T09:45:45.774Z,101639
2018-05-06T09:48:14.107Z,101635
2018-05-06T09:50:43.879Z,101634
2018-05-06T09:53:12.323Z,101628
2018-05-06T09:55:40.745Z,101628
2018-05-06T09:58:09.112Z,101621
2018-05-06T10:00:37.846Z,101621
2018-05-06T10:03:06.283Z,101620
2018-05-06T10:05:34.645Z,101613
2018-05-06T10:08:03.079Z,101617
2018-05-06T10:10:32.171Z,101607
2018-05-06T10:13:00.651Z,101608
2018-05-06T10:15:29.909Z,101608
2018-05-06T10:17:58.630Z,101597
2018-05-06T10:20:27.124Z,101599
2018-05-06T10:22:56.333Z,101593
2018-05-06T10:25:25.594Z,101597
2018-05-06T10:27:53.930Z,101597
2018-05-06T10:30:22.273Z,101593
2018-05-06T10:32:51.431Z,101597
2018-05-06T10:35:19.785Z,101594
2018-05-06T10:37:48.165Z,101590
2018-05-06T10:40:16.670Z,101586
2018-05-06T10:42:45.067Z,101587
2018-05-06T10:45:13.770Z,101583
2018-05-06T10:47:42.434Z,101586
2018-05-06T10:50:12.007Z,101583
2018-05-06T10:52:40.375Z,101580
2018-05-06T10:55:09.002Z,101580
2018-05-06T10:57:37.340Z,101575
2018-05-06T11:00:05.696Z,101577
2018-05-06T11:02:35.007Z,101573
2018-05-06T11:05:03.451Z,101569
2018-05-06T11:07:31.787Z,101564
2018-05-06T11:10:00.122Z,101558
2018-05-06T11:12:28.699Z,101561
2018-05-06T11:14:57.040Z,101558
2018-05-06T11:17:25.490Z,101552
2018-05-06T11:19:53.853Z,101548
2018-05-06T11:22:22.174Z,101548
2018-05-06T11:24:50.662Z,101551
2018-05-06T11:27:19.036Z,101540
2018-05-06T11:29:47.509Z,101547
2018-05-06T11:32:15.922Z,101536
2018-05-06T11:34:44.451Z,101534
2018-05-06T11:37:12.843Z,101533
2018-05-06T11:39:41.413Z,101523
2018-05-06T11:42:09.765Z,101523
2018-05-06T11:44:38.891Z,101511
2018-05-06T11:47:07.325Z,101518
2018-05-06T11:49:35.921Z,101513
2018-05-06T11:52:06.189Z,101508
2018-05-06T11:54:34.717Z,101512
2018-05-06T11:57:04.039Z,101510
2018-05-06T11:59:33.264Z,101507
2018-05-06T12:02:01.648Z,101503
2018-05-06T12:04:29.977Z,101504
2018-05-06T12:06:59.197Z,101504
2018-05-06T12:09:27.581Z,101497
2018-05-06T12:11:55.993Z,101494
2018-05-06T12:14:24.542Z,101480
2018-05-06T12:16:52.893Z,101479
2018-05-06T12:19:21.327Z,101473
2018-05-06T12:21:49.690Z,101474
2018-05-06T12:24:18.249Z,101479
2018-05-06T12:26:46.771Z,101471
2018-05-06T12:29:15.091Z,101470
2018-05-06T12:31:43.447Z,101466
2018-05-06T12:34:11.782Z,101463
2018-05-06T12:36:40.360Z,101452
2018-05-06T12:39:09.088Z,101447
2018-05-06T12:41:37.426Z,101451
2018-05-06T12:44:05.882Z,101447
2018-05-06T12:46:34.212Z,101446
2018-05-06T12:49:02.570Z,101447
2018-05-06T12:51:32.255Z,101441
2018-05-06T12:54:00.872Z,101436
2018-05-06T12:56:29.217Z,101440
2018-05-06T12:58:58.329Z,101434
2018-05-06T13:01:26.687Z,101428
2018-05-06T13:03:55.800Z,101419
2018-05-06T13:06:24.277Z,101416
2018-05-06T13:08:52.696Z,101405
2018-05-06T13:11:21.107Z,101408
2018-05-06T13:13:49.436Z,101404
2018-05-06T13:16:17.826Z,101398
2018-05-06T13:18:46.140Z,101401
2018-05-06T13:21:14.691Z,101398
2018-05-06T13:23:43.156Z,101397
2018-05-06T13:26:11.462Z,101395
2018-05-06T13:28:40.684Z,101389
2018-05-06T13:31:09.945Z,101391
2018-05-06T13:33:38.294Z,101390
2018-05-06T13:36:06.690Z,101391
2018-05-06T13:38:35.253Z,101390
2018-05-06T13:41:03.855Z,101386
2018-05-06T13:43:32.256Z,101386
2018-05-06T13:46:00.655Z,101378
2018-05-06T13:48:28.996Z,101377
2018-05-06T13:50:57.362Z,101378
2018-05-06T13:53:25.716Z,101371
2018-05-06T13:55:54.881Z,101374
2018-05-06T13:58:23.403Z,101374
2018-05-06T14:00:51.795Z,101361
2018-05-06T14:03:20.120Z,101364
2018-05-06T14:05:49.346Z,101361
2018-05-06T14:08:17.685Z,101362
2018-05-06T14:10:45.986Z,101354
2018-05-06T14:13:15.058Z,101356
2018-05-06T14:15:43.471Z,101348
2018-05-06T14:18:11.894Z,101343
2018-05-06T14:20:40.310Z,101342
2018-05-06T14:23:09.392Z,101348
2018-05-06T14:25:39.560Z,101343
2018-05-06T14:28:08.970Z,101343
2018-05-06T14:30:39.327Z,101343
2018-05-06T14:33:07.725Z,101349
2018-05-06T14:35:37.110Z,101351
2018-05-06T14:38:05.421Z,101344
2018-05-06T14:40:33.837Z,101338
2018-05-06T14:43:02.402Z,101339
2018-05-06T14:45:30.905Z,101332
2018-05-06T14:48:16.102Z,101341
2018-05-06T14:50:44.436Z,101341
2018-05-06T14:53:12.791Z,101339
2018-05-06T14:55:41.229Z,101331
2018-05-06T14:58:09.710Z,101330
2018-05-06T15:00:38.022Z,101330
2018-05-06T15:03:07.231Z,101326
2018-05-06T15:05:35.631Z,101324
2018-05-06T15:08:04.056Z,101328
2018-05-06T15:10:33.232Z,101326
2018-05-06T15:13:01.670Z,101325
2018-05-06T15:15:30.020Z,101330
2018-05-06T15:17:59.446Z,101321
2018-05-06T15:20:28.936Z,101315
2018-05-06T15:22:58.196Z,101319
2018-05-06T15:25:26.605Z,101323
2018-05-06T15:27:55.660Z,101318
2018-05-06T15:30:24.047Z,101312
2018-05-06T15:32:52.443Z,101305
2018-05-06T15:35:20.795Z,101303
2018-05-06T15:37:49.296Z,101303
2018-05-06T15:40:17.927Z,101294
2018-05-06T15:42:46.336Z,101295
2018-05-06T15:45:14.772Z,101298
2018-05-06T15:47:43.317Z,101291
2018-05-06T15:50:13.513Z,101281
2018-05-06T15:52:41.904Z,101281
2018-05-06T15:55:10.277Z,101282
2018-05-06T15:57:38.609Z,101284
2018-05-06T16:00:07.031Z,101276
2018-05-06T16:05:41.439Z,101276
2018-05-06T16:08:09.918Z,101282
2018-05-06T16:10:38.237Z,101283
2018-05-06T16:13:06.802Z,101272
2018-05-06T16:15:35.158Z,101273
2018-05-06T16:18:03.496Z,101264
2018-05-06T16:20:32.601Z,101268
2018-05-06T16:23:01.077Z,101267
2018-05-06T16:25:29.465Z,101258
2018-05-06T16:27:59.179Z,101261
2018-05-06T16:30:27.547Z,101259
2018-05-06T16:32:55.895Z,101258
2018-05-06T16:35:25.394Z,101251
2018-05-06T16:37:53.752Z,101257
2018-05-06T16:40:22.362Z,101252
2018-05-06T16:42:51.501Z,101260
2018-05-06T16:45:20.003Z,101254
2018-05-06T16:47:48.323Z,101246
2018-05-06T16:50:16.731Z,101249
2018-05-06T16:52:45.201Z,101254
2018-05-06T16:55:13.893Z,101260
2018-05-06T16:57:42.277Z,101257
2018-05-06T17:00:10.747Z,101259
2018-05-06T17:02:39.128Z,101256
2018-05-06T17:05:07.522Z,101257
2018-05-06T17:07:35.896Z,101251
2018-05-06T17:10:04.401Z,101260
2018-05-06T17:12:32.747Z,101261
2018-05-06T17:15:01.114Z,101255
2018-05-06T17:17:29.554Z,101257
2018-05-06T17:20:00.583Z,101255
2018-05-06T17:22:29.728Z,101256
2018-05-06T17:24:58.123Z,101260
2018-05-06T17:27:26.487Z,101257
2018-05-06T17:29:54.930Z,101256
2018-05-06T17:32:23.579Z,101251
2018-05-06T17:34:51.912Z,101252
2018-05-06T17:37:20.326Z,101257
2018-05-06T17:39:48.862Z,101260
2018-05-06T17:42:17.389Z,101260
2018-05-06T17:44:45.679Z,101265
2018-05-06T17:47:14.862Z,101257
2018-05-06T17:49:43.269Z,101258
2018-05-06T17:52:12.478Z,101267
2018-05-06T17:54:40.837Z,101265
2018-05-06T17:57:11.700Z,101262
2018-05-06T17:59:41.863Z,101267
2018-05-06T18:02:10.147Z,101265
2018-05-06T18:04:38.523Z,101268
2018-05-06T18:07:06.941Z,101279
2018-05-06T18:09:35.556Z,101278
2018-05-06T18:12:04.015Z,101278
2018-05-06T18:14:32.422Z,101284
2018-05-06T18:17:00.978Z,101285
2018-05-06T18:19:29.458Z,101284
2018-05-06T18:21:57.821Z,101296
2018-05-06T18:24:26.351Z,101296
2018-05-06T18:26:54.743Z,101301
2018-05-06T18:29:23.404Z,101303
2018-05-06T18:31:51.768Z,101297
2018-05-06T18:34:20.963Z,101305
2018-05-06T18:36:49.565Z,101304
2018-05-06T18:39:18.720Z,101311
2018-05-06T18:41:47.128Z,101309
2018-05-06T18:44:15.469Z,101307
2018-05-06T18:46:43.900Z,101305
2018-05-06T18:49:12.398Z,101308
2018-05-06T18:51:41.591Z,101306
2018-05-06T18:54:10.968Z,101310
2018-05-06T18:56:40.161Z,101312
2018-05-06T18:59:09.538Z,101311
2018-05-06T19:01:37.983Z,101308
2018-05-06T19:04:06.512Z,101314
2018-05-06T19:06:35.272Z,101316
2018-05-06T19:09:03.654Z,101307
2018-05-06T19:11:32.131Z,101312
2018-05-06T19:14:00.569Z,101311
2018-05-06T19:16:29.793Z,101315
2018-05-06T19:18:58.263Z,101317
2018-05-06T19:21:27.682Z,101318
2018-05-06T19:23:56.129Z,101322
2018-05-06T19:26:25.489Z,101318
2018-05-06T19:28:53.861Z,101318
2018-05-06T19:31:22.443Z,101324
2018-05-06T19:33:51.000Z,101325
2018-05-06T19:36:19.468Z,101331
2018-05-06T19:38:48.689Z,101331
2018-05-06T19:41:17.080Z,101331
2018-05-06T19:43:45.686Z,101333
2018-05-06T19:46:14.077Z,101342
2018-05-06T19:48:42.434Z,101345
2018-05-06T19:51:10.777Z,101342
2018-05-06T19:53:39.208Z,101339
2018-05-06T19:56:07.791Z,101341
2018-05-06T19:58:36.239Z,101342
2018-05-06T20:01:04.589Z,101342
2018-05-06T20:03:33.723Z,101342
2018-05-06T20:06:02.037Z,101341
2018-05-06T20:08:30.451Z,101344
2018-05-06T20:10:58.998Z,101346
2018-05-06T20:13:27.429Z,101341
2018-05-06T20:15:55.760Z,101347
2018-05-06T20:18:24.222Z,101347
2018-05-06T20:20:52.590Z,101349
2018-05-06T20:23:21.420Z,101356
2018-05-06T20:25:50.686Z,101358
2018-05-06T20:28:19.148Z,101354
2018-05-06T20:30:47.542Z,101359
2018-05-06T20:33:15.987Z,101352
2018-05-06T20:35:44.861Z,101314
2018-05-06T20:38:14.076Z,101352
2018-05-06T20:40:42.402Z,101361
2018-05-06T20:43:10.749Z,101361
2018-05-06T20:45:39.236Z,101368
2018-05-06T20:48:07.535Z,101366
2018-05-06T20:50:35.920Z,101363
2018-05-06T20:53:04.289Z,101368
2018-05-06T20:55:32.647Z,101370
2018-05-06T20:58:00.951Z,101371
2018-05-06T21:00:29.323Z,101371
2018-05-06T21:02:57.712Z,101374
2018-05-06T21:05:26.802Z,101372
2018-05-06T21:07:55.132Z,101373
2018-05-06T21:10:23.766Z,101371
2018-05-06T21:12:52.189Z,101369
2018-05-06T21:15:20.499Z,101366
2018-05-06T21:17:48.953Z,101366
2018-05-06T21:20:17.263Z,101368
2018-05-06T21:22:46.722Z,101366
2018-05-06T21:25:15.287Z,101370
2018-05-06T21:27:44.647Z,101370
2018-05-06T21:30:13.006Z,101367
2018-05-06T21:32:41.297Z,101365
2018-05-06T21:35:09.607Z,101364
2018-05-06T21:37:39.609Z,101364
2018-05-06T21:40:07.950Z,101366
2018-05-06T21:42:36.284Z,101359
2018-05-06T21:45:06.223Z,101364
2018-05-06T21:47:34.540Z,101368
2018-05-06T21:50:02.908Z,101366
2018-05-06T21:52:32.319Z,101366
2018-05-06T21:55:00.892Z,101367
2018-05-06T21:57:29.514Z,101369
2018-05-06T21:59:57.844Z,101369
2018-05-06T22:02:26.160Z,101367
2018-05-06T22:04:54.470Z,101370
2018-05-06T22:07:22.870Z,101375
2018-05-06T22:09:51.380Z,101377
2018-05-06T22:12:19.750Z,101376
2018-05-06T22:14:48.122Z,101377
2018-05-06T22:17:16.459Z,101385
2018-05-06T22:19:44.779Z,101387
2018-05-06T22:22:15.449Z,101385
2018-05-06T22:24:44.818Z,101380
2018-05-06T22:27:13.245Z,101376
2018-05-06T22:29:42.528Z,101372
2018-05-06T22:32:11.017Z,101369
2018-05-06T22:34:39.319Z,101377
2018-05-06T22:37:08.392Z,101379
2018-05-06T22:39:36.736Z,101381
2018-05-06T22:42:05.038Z,101382
2018-05-06T22:44:33.761Z,101383
2018-05-06T22:47:02.153Z,101382
2018-05-06T22:49:30.458Z,101382
2018-05-06T22:51:58.736Z,101383
2018-05-06T22:54:28.137Z,101379
2018-05-06T22:56:56.462Z,101382
2018-05-06T22:59:24.772Z,101383
2018-05-06T23:01:53.206Z,101379
2018-05-06T23:04:21.597Z,101376
2018-05-06T23:06:50.048Z,101385
2018-05-06T23:09:18.356Z,101379
2018-05-06T23:11:47.580Z,101376
2018-05-06T23:14:15.906Z,101375
2018-05-06T23:16:44.159Z,101380
2018-05-06T23:19:12.506Z,101379
2018-05-06T23:21:40.844Z,101380
2018-05-06T23:24:09.652Z,101380
2018-05-06T23:26:38.879Z,101379
2018-05-06T23:29:07.334Z,101377
2018-05-06T23:31:35.642Z,101378
2018-05-06T23:34:03.918Z,101376
2018-05-06T23:36:32.245Z,101379
2018-05-06T23:39:01.343Z,101381
2018-05-06T23:41:30.424Z,101375
2018-05-06T23:43:58.819Z,101375
2018-05-06T23:46:27.991Z,101373
2018-05-06T23:48:56.309Z,101384
2018-05-06T23:51:24.731Z,101378
2018-05-06T23:53:54.236Z,101379
2018-05-06T23:56:22.742Z,101376
2018-05-06T23:58:51.042Z,101379
